createdAt,value
2023-03-06T00:01:17.794Z,0.69
2023-03-06T00:03:45.684Z,0.68
2023-03-06T00:06:13.615Z,0.67
2023-03-06T00:08:44.431Z,0.67
2023-03-06T00:11:14.910Z,0.66
2023-03-06T00:13:42.685Z,0.66
2023-03-06T00:16:15.631Z,0.67
2023-03-06T00:18:44.161Z,0.67
2023-03-06T00:21:14.139Z,0.67
2023-03-06T00:23:41.913Z,0.68
2023-03-06T00:26:10.284Z,0.68
2023-03-06T00:28:38.247Z,0.69
2023-03-06T00:31:06.294Z,0.68
2023-03-06T00:33:34.161Z,0.70
2023-03-06T00:36:05.040Z,0.69
2023-03-06T00:38:37.492Z,0.68
2023-03-06T00:41:13.448Z,0.68
2023-03-06T00:43:44.315Z,0.69
2023-03-06T00:46:12.248Z,0.69
2023-03-06T00:48:42.276Z,0.70
2023-03-06T00:51:12.805Z,0.70
2023-03-06T00:53:41.604Z,0.70
2023-03-06T00:56:09.473Z,0.71
2023-03-06T00:58:37.767Z,0.72
2023-03-06T01:01:05.895Z,0.72
2023-03-06T01:03:34.080Z,0.72
2023-03-06T01:06:02.141Z,0.73
2023-03-06T01:08:30.221Z,0.73
2023-03-06T01:10:58.295Z,0.72
2023-03-06T01:13:36.100Z,0.71
2023-03-06T01:16:10.351Z,0.71
2023-03-06T01:18:39.106Z,0.70
2023-03-06T01:21:07.318Z,0.71
2023-03-06T01:23:35.257Z,0.71
2023-03-06T01:26:03.703Z,0.72
2023-03-06T01:28:34.129Z,0.71
2023-03-06T01:31:02.142Z,0.71
2023-03-06T01:33:30.342Z,0.70
2023-03-06T01:35:58.208Z,0.71
2023-03-06T01:38:28.458Z,0.71
2023-03-06T01:41:04.500Z,0.72
2023-03-06T01:43:35.614Z,0.72
2023-03-06T01:46:26.621Z,0.71
2023-03-06T01:49:09.174Z,0.70
2023-03-06T01:51:48.487Z,0.71
2023-03-06T01:54:28.245Z,0.71
2023-03-06T01:57:11.882Z,0.70
2023-03-06T01:59:42.134Z,0.71
2023-03-06T02:02:21.963Z,0.71
2023-03-06T02:04:53.389Z,0.70
2023-03-06T02:07:21.942Z,0.70
2023-03-06T02:09:52.268Z,0.71
2023-03-06T02:12:21.419Z,0.70
2023-03-06T02:14:50.179Z,0.70
2023-03-06T02:17:20.600Z,0.71
2023-03-06T02:20:01.306Z,0.69
2023-03-06T02:22:46.366Z,0.69
2023-03-06T02:25:26.507Z,0.70
2023-03-06T02:27:54.674Z,0.70
2023-03-06T02:30:26.144Z,0.69
2023-03-06T02:32:55.025Z,0.68
2023-03-06T02:35:26.846Z,0.66
2023-03-06T02:37:57.978Z,0.65
2023-03-06T02:40:26.670Z,0.66
2023-03-06T02:42:57.280Z,0.64
2023-03-06T02:45:38.309Z,0.62
2023-03-06T02:48:16.462Z,0.61
2023-03-06T02:50:45.924Z,0.60
2023-03-06T02:53:16.811Z,0.61
2023-03-06T02:55:50.302Z,0.60
2023-03-06T02:58:22.313Z,0.57
2023-03-06T03:00:50.759Z,0.56
2023-03-06T03:03:19.007Z,0.54
2023-03-06T03:05:47.288Z,0.52
2023-03-06T03:08:15.280Z,0.50
2023-03-06T03:10:43.354Z,0.50
2023-03-06T03:13:14.224Z,0.48
2023-03-06T03:15:42.664Z,0.47
2023-03-06T03:18:11.947Z,0.46
2023-03-06T03:20:42.802Z,0.46
2023-03-06T03:23:13.579Z,0.47
2023-03-06T03:25:41.496Z,0.46
2023-03-06T03:28:09.825Z,0.46
2023-03-06T03:30:39.657Z,0.47
2023-03-06T03:33:07.986Z,0.49
2023-03-06T03:35:36.088Z,0.50
2023-03-06T03:38:04.101Z,0.51
2023-03-06T03:40:32.499Z,0.53
2023-03-06T03:43:01.185Z,0.55
2023-03-06T03:45:29.030Z,0.56
2023-03-06T03:47:57.025Z,0.56
2023-03-06T03:50:27.350Z,0.56
2023-03-06T03:53:04.573Z,0.54
2023-03-06T03:55:32.784Z,0.51
2023-03-06T03:58:01.050Z,0.50
2023-03-06T04:00:29.138Z,0.49
2023-03-06T04:02:56.913Z,0.50
2023-03-06T04:05:33.972Z,0.52
2023-03-06T04:08:03.317Z,0.51
2023-03-06T04:10:31.639Z,0.50
2023-03-06T04:13:02.130Z,0.51
2023-03-06T04:15:32.845Z,0.53
2023-03-06T04:18:00.756Z,0.56
2023-03-06T04:20:29.021Z,0.58
2023-03-06T04:22:59.990Z,0.59
2023-03-06T04:25:27.832Z,0.60
2023-03-06T04:27:55.817Z,0.60
2023-03-06T04:30:34.124Z,0.61
2023-03-06T04:33:02.610Z,0.60
2023-03-06T04:35:32.189Z,0.57
2023-03-06T04:38:00.081Z,0.55
2023-03-06T04:40:31.387Z,0.54
2023-03-06T04:43:00.549Z,0.52
2023-03-06T04:45:30.417Z,0.51
2023-03-06T04:48:11.196Z,0.49
2023-03-06T04:50:40.265Z,0.47
2023-03-06T04:53:19.702Z,0.43
2023-03-06T04:55:48.090Z,0.38
2023-03-06T04:58:16.501Z,0.35
2023-03-06T05:00:44.732Z,0.29
2023-03-06T05:03:15.295Z,0.23
2023-03-06T05:05:43.196Z,0.18
2023-03-06T05:08:15.324Z,0.14
2023-03-06T05:10:44.917Z,0.11
2023-03-06T05:13:47.432Z,0.08
2023-03-06T05:16:15.345Z,0.03
2023-03-06T05:18:43.304Z,0.03
2023-03-06T05:21:11.331Z,0.02
2023-03-06T05:23:39.125Z,-0.02
2023-03-06T05:26:15.542Z,-0.06
2023-03-06T05:28:44.663Z,-0.09
2023-03-06T05:31:12.425Z,-0.12
2023-03-06T05:33:40.967Z,-0.14
2023-03-06T05:36:09.723Z,-0.15
2023-03-06T05:38:37.611Z,-0.16
2023-03-06T05:41:05.488Z,-0.13
2023-03-06T05:43:36.295Z,-0.10
2023-03-06T05:46:06.263Z,-0.08
2023-03-06T05:48:35.238Z,-0.08
2023-03-06T05:51:04.554Z,-0.08
2023-03-06T05:53:32.896Z,-0.06
2023-03-06T05:56:06.908Z,-0.02
2023-03-06T05:58:35.083Z,0.07
2023-03-06T06:01:14.584Z,0.17
2023-03-06T06:03:42.923Z,0.27
2023-03-06T06:06:13.198Z,0.37
2023-03-06T06:08:44.499Z,0.48
2023-03-06T06:11:13.472Z,0.56
2023-03-06T06:13:42.179Z,0.64
2023-03-06T06:16:16.725Z,0.71
2023-03-06T06:18:45.790Z,0.76
2023-03-06T06:21:17.640Z,0.80
2023-03-06T06:23:46.270Z,0.82
2023-03-06T06:26:14.033Z,0.84
2023-03-06T06:28:41.836Z,0.86
2023-03-06T06:31:12.515Z,0.90
2023-03-06T06:33:42.071Z,0.94
2023-03-06T06:36:20.678Z,1.02
2023-03-06T06:38:49.458Z,1.10
2023-03-06T06:44:12.597Z,1.20
2023-03-06T06:49:29.708Z,1.29
2023-03-06T06:51:58.096Z,1.33
2023-03-06T06:54:27.695Z,1.34
2023-03-06T06:56:55.648Z,1.39
2023-03-06T06:59:31.653Z,1.44
2023-03-06T07:01:59.498Z,1.50
2023-03-06T07:04:27.240Z,1.52
2023-03-06T07:06:57.020Z,1.52
2023-03-06T07:09:25.340Z,1.53
2023-03-06T07:11:53.784Z,1.56
2023-03-06T07:14:25.530Z,1.60
2023-03-06T07:16:53.375Z,1.63
2023-03-06T07:19:21.782Z,1.64
2023-03-06T07:21:49.712Z,1.67
2023-03-06T07:24:20.613Z,1.73
2023-03-06T07:26:58.401Z,1.80
2023-03-06T07:29:26.952Z,1.87
2023-03-06T07:32:02.216Z,1.95
2023-03-06T07:34:43.959Z,2.03
2023-03-06T07:37:12.493Z,2.13
2023-03-06T07:39:43.209Z,2.24
2023-03-06T07:42:14.794Z,2.36
2023-03-06T07:44:42.946Z,2.43
2023-03-06T07:47:13.912Z,2.46
2023-03-06T07:49:42.319Z,2.43
2023-03-06T07:52:11.241Z,2.44
2023-03-06T07:54:39.246Z,2.48
2023-03-06T07:57:07.074Z,2.51
2023-03-06T07:59:34.862Z,2.51
2023-03-06T08:02:03.705Z,2.53
2023-03-06T08:04:32.231Z,2.59
2023-03-06T08:07:00.407Z,2.68
2023-03-06T08:09:36.987Z,2.79
2023-03-06T08:12:27.106Z,2.91
2023-03-06T08:14:56.004Z,2.96
2023-03-06T08:17:23.984Z,2.97
2023-03-06T08:19:51.823Z,2.97
2023-03-06T08:22:20.075Z,2.98
2023-03-06T08:24:47.832Z,3.04
2023-03-06T08:27:16.298Z,3.11
2023-03-06T08:29:44.212Z,3.17
2023-03-06T08:32:12.400Z,3.29
2023-03-06T08:34:41.200Z,3.41
2023-03-06T08:37:09.751Z,3.53
2023-03-06T08:39:37.940Z,3.63
2023-03-06T08:42:05.793Z,3.72
2023-03-06T08:44:56.333Z,3.84
2023-03-06T08:47:24.633Z,3.95
2023-03-06T08:49:52.872Z,4.05
2023-03-06T08:52:21.045Z,4.13
2023-03-06T08:54:48.823Z,4.16
2023-03-06T08:57:16.741Z,4.20
2023-03-06T08:59:44.548Z,4.25
2023-03-06T09:02:15.371Z,4.26
2023-03-06T09:04:44.112Z,4.29
2023-03-06T09:07:12.824Z,4.30
2023-03-06T09:09:40.747Z,4.38
2023-03-06T09:12:08.600Z,4.48
2023-03-06T09:14:39.295Z,4.52
2023-03-06T09:17:07.646Z,4.53
2023-03-06T09:19:35.941Z,4.59
2023-03-06T09:22:03.833Z,4.63
2023-03-06T09:24:31.771Z,4.70
2023-03-06T09:26:59.799Z,4.73
2023-03-06T09:29:27.955Z,4.76
2023-03-06T09:31:56.220Z,4.75
2023-03-06T09:34:24.740Z,4.68
2023-03-06T09:36:57.438Z,4.64
2023-03-06T09:39:26.231Z,4.62
2023-03-06T09:41:55.492Z,4.63
2023-03-06T09:44:27.643Z,4.69
2023-03-06T09:47:17.644Z,4.77
2023-03-06T09:50:04.871Z,4.89
2023-03-06T09:52:46.046Z,5.04
2023-03-06T09:55:19.200Z,5.21
2023-03-06T09:58:09.224Z,5.37
2023-03-06T10:00:59.312Z,5.51
2023-03-06T10:03:38.956Z,5.66
2023-03-06T10:06:16.573Z,5.78
2023-03-06T10:08:55.709Z,5.87
2023-03-06T10:11:44.809Z,5.90
2023-03-06T10:14:35.268Z,5.87
2023-03-06T10:17:05.086Z,5.86
2023-03-06T10:19:37.158Z,5.87
2023-03-06T10:22:25.146Z,5.84
2023-03-06T10:25:19.923Z,5.87
2023-03-06T10:27:48.314Z,5.88
2023-03-06T10:30:58.660Z,5.86
2023-03-06T10:33:38.586Z,5.81
2023-03-06T10:36:06.649Z,5.76
2023-03-06T10:38:37.819Z,5.71
2023-03-06T10:41:12.402Z,5.64
2023-03-06T10:43:45.405Z,5.56
2023-03-06T10:46:29.419Z,5.56
2023-03-06T10:49:00.717Z,5.59
2023-03-06T10:51:30.844Z,5.65
2023-03-06T10:54:23.978Z,5.74
2023-03-06T10:56:52.040Z,5.84
2023-03-06T10:59:25.337Z,5.90
2023-03-06T11:02:33.344Z,5.92
2023-03-06T11:05:01.927Z,5.97
2023-03-06T11:07:36.995Z,6.02
2023-03-06T11:10:22.101Z,6.08
2023-03-06T11:13:07.739Z,6.12
2023-03-06T11:15:35.886Z,6.19
2023-03-06T11:18:24.906Z,6.22
2023-03-06T11:20:55.768Z,6.26
2023-03-06T11:23:36.305Z,6.32
2023-03-06T11:26:16.415Z,6.39
2023-03-06T11:28:59.432Z,6.46
2023-03-06T12:15:33.975Z,6.64
2023-03-06T12:18:12.701Z,6.74
2023-03-06T12:20:47.285Z,6.77
2023-03-06T12:23:44.769Z,6.72
2023-03-06T12:39:08.405Z,6.68
2023-03-06T12:41:42.700Z,6.67
2023-03-06T12:44:38.250Z,6.70
2023-03-06T12:47:09.869Z,6.72
2023-03-06T12:49:41.564Z,6.75
2023-03-06T12:52:11.046Z,6.74
2023-03-06T12:54:40.519Z,6.72
2023-03-06T12:57:08.553Z,6.70
2023-03-06T12:59:36.631Z,6.66
2023-03-06T13:02:39.251Z,6.64
2023-03-06T13:05:29.622Z,6.64
2023-03-06T13:08:32.102Z,6.67
2023-03-06T13:11:41.271Z,6.66
2023-03-06T13:14:54.207Z,6.70
2023-03-06T13:17:27.706Z,6.74
2023-03-06T13:20:12.461Z,6.75
2023-03-06T13:22:40.841Z,6.78
2023-03-06T13:25:17.500Z,6.77
2023-03-06T13:27:53.775Z,6.75
2023-03-06T13:30:21.896Z,6.70
2023-03-06T13:32:52.088Z,6.66
2023-03-06T13:35:31.610Z,6.59
2023-03-06T13:37:59.798Z,6.53
2023-03-06T13:40:28.082Z,6.46
2023-03-06T13:43:06.538Z,6.38
2023-03-06T13:45:38.087Z,6.34
2023-03-06T13:48:41.569Z,6.28
2023-03-06T13:50:54.972Z,6.23
2023-03-06T13:53:41.540Z,6.20
2023-03-06T13:56:24.092Z,6.22
2023-03-06T13:59:23.637Z,6.25
2023-03-06T14:02:17.163Z,6.32
2023-03-06T14:04:54.053Z,6.42
2023-03-06T14:07:29.703Z,6.52
2023-03-06T14:10:00.416Z,6.59
2023-03-06T14:12:34.158Z,6.66
2023-03-06T14:15:41.475Z,6.72
2023-03-06T14:18:25.764Z,6.76
2023-03-06T14:21:05.706Z,6.76
2023-03-06T14:23:46.548Z,6.76
2023-03-06T14:26:18.605Z,6.76
2023-03-06T14:28:51.258Z,6.76
2023-03-06T14:31:21.410Z,6.76
2023-03-06T14:33:53.842Z,6.75
2023-03-06T14:36:23.137Z,6.75
2023-03-06T14:38:54.982Z,6.73
2023-03-06T14:41:28.262Z,6.72
2023-03-06T14:44:16.021Z,6.71
2023-03-06T14:46:43.704Z,6.71
2023-03-06T14:49:15.878Z,6.69
2023-03-06T14:51:45.934Z,6.64
2023-03-06T14:54:17.021Z,6.58
2023-03-06T14:56:46.863Z,6.52
2023-03-06T14:59:17.965Z,6.42
2023-03-06T15:01:50.913Z,6.29
2023-03-06T15:04:41.684Z,6.11
2023-03-06T15:07:15.735Z,5.86
2023-03-06T15:09:53.436Z,5.66
2023-03-06T15:12:23.893Z,5.47
2023-03-06T15:15:06.084Z,5.33
2023-03-06T15:17:44.472Z,5.19
2023-03-06T15:20:36.063Z,5.09
2023-03-06T15:23:34.355Z,4.97
2023-03-06T15:26:25.909Z,4.84
2023-03-06T15:29:03.394Z,4.77
2023-03-06T15:31:40.276Z,4.71
2023-03-06T15:34:07.309Z,4.66
2023-03-06T15:36:36.644Z,4.61
2023-03-06T15:39:34.282Z,4.53
2023-03-06T15:42:20.163Z,4.48
2023-03-06T15:44:55.455Z,4.44
2023-03-06T15:47:23.338Z,4.43
2023-03-06T15:49:52.435Z,4.43
2023-03-06T15:52:20.440Z,4.42
2023-03-06T15:54:47.391Z,4.41
2023-03-06T15:57:28.671Z,4.40
2023-03-06T15:59:55.920Z,4.38
2023-03-06T16:02:23.713Z,4.35
2023-03-06T16:04:51.248Z,4.34
2023-03-06T16:07:17.821Z,4.28
2023-03-06T16:09:44.863Z,4.23
2023-03-06T16:12:21.141Z,4.19
2023-03-06T16:14:48.616Z,4.15
2023-03-06T16:17:16.016Z,4.12
2023-03-06T16:19:42.746Z,4.11
2023-03-06T16:22:09.242Z,4.11
2023-03-06T16:24:36.750Z,4.10
2023-03-06T16:27:04.273Z,4.11
2023-03-06T16:29:31.081Z,4.08
2023-03-06T16:31:59.995Z,4.02
2023-03-06T16:34:27.218Z,3.97
2023-03-06T16:36:53.959Z,3.94
2023-03-06T16:39:23.122Z,3.91
2023-03-06T16:41:50.711Z,3.87
2023-03-06T16:44:17.656Z,3.86
2023-03-06T16:46:46.454Z,3.83
2023-03-06T16:49:18.672Z,3.82
2023-03-06T16:51:45.655Z,3.78
2023-03-06T16:54:13.266Z,3.76
2023-03-06T16:56:40.189Z,3.74
2023-03-06T16:59:06.598Z,3.72
2023-03-06T17:01:33.154Z,3.72
2023-03-06T17:03:59.679Z,3.69
2023-03-06T17:06:27.107Z,3.65
2023-03-06T17:08:53.984Z,3.60
2023-03-06T17:11:20.721Z,3.54
2023-03-06T17:13:47.759Z,3.48
2023-03-06T17:16:15.863Z,3.41
2023-03-06T17:18:44.586Z,3.37
2023-03-06T17:21:14.928Z,3.32
2023-03-06T17:23:41.746Z,3.28
2023-03-06T17:26:14.345Z,3.23
2023-03-06T17:28:41.887Z,3.19
2023-03-06T17:31:15.945Z,3.15
2023-03-06T17:33:43.117Z,3.11
2023-03-06T17:36:11.199Z,3.09
2023-03-06T17:38:37.740Z,3.08
2023-03-06T17:41:06.063Z,3.07
2023-03-06T17:43:33.236Z,3.02
2023-03-06T17:46:04.621Z,2.94
2023-03-06T17:48:32.419Z,2.87
2023-03-06T17:50:58.931Z,2.82
2023-03-06T17:53:26.378Z,2.77
2023-03-06T17:55:53.249Z,2.70
2023-03-06T17:58:19.627Z,2.66
2023-03-06T18:00:46.627Z,2.64
2023-03-06T18:03:13.724Z,2.63
2023-03-06T18:05:40.334Z,2.65
2023-03-06T18:08:09.581Z,2.66
2023-03-06T18:10:40.671Z,2.66
2023-03-06T18:13:08.617Z,2.65
2023-03-06T18:15:40.126Z,2.63
2023-03-06T18:18:08.000Z,2.62
2023-03-06T18:20:39.559Z,2.61
2023-03-06T18:23:05.998Z,2.58
2023-03-06T18:25:33.118Z,2.54
2023-03-06T18:28:00.058Z,2.51
2023-03-06T18:30:27.169Z,2.49
2023-03-06T18:32:54.102Z,2.47
2023-03-06T18:35:20.857Z,2.47
2023-03-06T18:37:47.338Z,2.46
2023-03-06T18:40:14.632Z,2.47
2023-03-06T18:42:41.603Z,2.49
2023-03-06T18:45:08.862Z,2.50
2023-03-06T18:47:35.506Z,2.51
2023-03-06T18:50:02.692Z,2.50
2023-03-06T18:52:29.851Z,2.48
2023-03-06T18:54:56.984Z,2.45
2023-03-06T18:57:23.443Z,2.45
2023-03-06T18:59:50.101Z,2.44
2023-03-06T19:02:16.669Z,2.43
2023-03-06T19:04:43.109Z,2.42
2023-03-06T19:07:10.121Z,2.41
2023-03-06T19:09:38.348Z,2.40
2023-03-06T19:12:05.260Z,2.41
2023-03-06T19:14:32.082Z,2.43
2023-03-06T19:16:58.533Z,2.43
2023-03-06T19:19:25.781Z,2.44
2023-03-06T19:21:53.454Z,2.44
2023-03-06T19:24:20.555Z,2.42
2023-03-06T19:26:47.023Z,2.40
2023-03-06T19:29:16.456Z,2.38
2023-03-06T19:31:46.356Z,2.36
2023-03-06T19:34:14.106Z,2.36
2023-03-06T19:36:46.124Z,2.33
2023-03-06T19:39:17.452Z,2.31
2023-03-06T19:41:45.843Z,2.29
2023-03-06T19:44:13.979Z,2.28
2023-03-06T19:46:40.682Z,2.29
2023-03-06T19:49:11.502Z,2.28
2023-03-06T19:51:41.351Z,2.28
2023-03-06T19:54:28.180Z,2.26
2023-03-06T19:57:00.996Z,2.24
2023-03-06T19:59:30.724Z,2.24
2023-03-06T20:01:59.180Z,2.24
2023-03-06T20:04:29.285Z,2.25
2023-03-06T20:07:00.345Z,2.25
2023-03-06T20:09:27.773Z,2.24
2023-03-06T20:11:57.006Z,2.24
2023-03-06T20:14:28.354Z,2.24
2023-03-06T20:17:00.806Z,2.25
2023-03-06T20:19:31.804Z,2.23
2023-03-06T20:22:00.903Z,2.21
2023-03-06T20:24:27.752Z,2.19
2023-03-06T20:26:59.202Z,2.17
2023-03-06T20:29:29.121Z,2.18
2023-03-06T20:32:01.432Z,2.19
2023-03-06T20:34:31.770Z,2.18
2023-03-06T20:37:01.300Z,2.16
2023-03-06T20:39:31.585Z,2.13
2023-03-06T20:41:59.509Z,2.11
2023-03-06T20:44:26.864Z,2.09
2023-03-06T20:46:54.629Z,2.09
2023-03-06T20:49:21.797Z,2.09
2023-03-06T20:51:49.742Z,2.08
2023-03-06T20:54:16.711Z,2.07
2023-03-06T20:56:48.155Z,2.07
2023-03-06T20:59:14.968Z,2.07
2023-03-06T21:01:44.444Z,2.04
2023-03-06T21:04:13.274Z,2.01
2023-03-06T21:06:44.661Z,2.00
2023-03-06T21:09:13.299Z,1.99
2023-03-06T21:11:39.907Z,1.99
2023-03-06T21:14:06.489Z,2.00
2023-03-06T21:16:33.350Z,2.01
2023-03-06T21:19:00.532Z,2.00
2023-03-06T21:21:30.443Z,2.00
2023-03-06T21:23:58.784Z,1.98
2023-03-06T21:26:29.965Z,1.98
2023-03-06T21:28:58.275Z,1.98
2023-03-06T21:31:26.523Z,1.99
2023-03-06T21:33:53.503Z,2.01
2023-03-06T21:36:21.265Z,2.03
2023-03-06T21:38:49.545Z,2.03
2023-03-06T21:41:19.467Z,2.01
2023-03-06T21:43:46.343Z,2.00
2023-03-06T21:46:13.594Z,2.00
2023-03-06T21:48:40.659Z,2.01
2023-03-06T21:51:09.920Z,2.02
2023-03-06T21:53:37.908Z,2.03
2023-03-06T21:56:04.635Z,1.99
2023-03-06T21:58:31.291Z,1.96
2023-03-06T22:00:58.313Z,1.91
2023-03-06T22:03:25.154Z,1.86
2023-03-06T22:05:54.285Z,1.81
2023-03-06T22:08:23.300Z,1.76
2023-03-06T22:10:50.069Z,1.72
2023-03-06T22:13:18.682Z,1.69
2023-03-06T22:15:52.576Z,1.63
2023-03-06T22:18:19.106Z,1.60
2023-03-06T22:20:45.621Z,1.57
2023-03-06T22:23:12.586Z,1.56
2023-03-06T22:25:39.310Z,1.55
2023-03-06T22:28:07.130Z,1.55
2023-03-06T22:30:33.940Z,1.58
2023-03-06T22:33:00.532Z,1.63
2023-03-06T22:35:26.967Z,1.68
2023-03-06T22:37:53.951Z,1.72
2023-03-06T22:40:21.410Z,1.72
2023-03-06T22:42:47.846Z,1.71
2023-03-06T22:45:14.280Z,1.71
2023-03-06T22:47:40.797Z,1.70
2023-03-06T22:50:08.563Z,1.68
2023-03-06T22:52:35.978Z,1.66
2023-03-06T22:55:02.536Z,1.64
2023-03-06T22:57:29.546Z,1.63
2023-03-06T22:59:55.960Z,1.62
2023-03-06T23:02:23.039Z,1.61
2023-03-06T23:04:53.244Z,1.59
2023-03-06T23:07:23.424Z,1.59
2023-03-06T23:09:49.852Z,1.61
2023-03-06T23:12:16.284Z,1.60
2023-03-06T23:14:43.056Z,1.59
2023-03-06T23:17:10.050Z,1.57
2023-03-06T23:19:37.494Z,1.54
2023-03-06T23:22:03.973Z,1.51
2023-03-06T23:24:32.677Z,1.47
2023-03-06T23:27:00.036Z,1.43
2023-03-06T23:29:26.441Z,1.41
2023-03-06T23:31:53.300Z,1.42
2023-03-06T23:34:19.775Z,1.43
2023-03-06T23:36:46.407Z,1.45
2023-03-06T23:39:13.911Z,1.45
2023-03-06T23:41:40.397Z,1.44
2023-03-06T23:44:06.961Z,1.41
2023-03-06T23:46:34.293Z,1.39
2023-03-06T23:49:00.749Z,1.39
2023-03-06T23:51:27.168Z,1.40
2023-03-06T23:53:56.818Z,1.39
2023-03-06T23:56:28.139Z,1.36
2023-03-06T23:58:55.128Z,1.32
